sensor_id;sensor_type;location;lat;lon;timestamp;temperature;humidity
22738;DHT22;11536;50.860;4.286;2023-01-29T00:01:08;1.60;99.90
22738;DHT22;11536;50.860;4.286;2023-01-29T00:03:34;1.60;99.90
22738;DHT22;11536;50.860;4.286;2023-01-29T00:06:04;1.60;99.90
22738;DHT22;11536;50.860;4.286;2023-01-29T00:08:35;1.60;99.90
22738;DHT22;11536;50.860;4.286;2023-01-29T00:11:05;1.50;99.90
22738;DHT22;11536;50.860;4.286;2023-01-29T00:13:31;1.50;99.90
22738;DHT22;11536;50.860;4.286;2023-01-29T00:15:59;1.40;99.90
22738;DHT22;11536;50.860;4.286;2023-01-29T00:18:25;1.40;99.90
22738;DHT22;11536;50.860;4.286;2023-01-29T00:20:51;1.40;99.90
22738;DHT22;11536;50.860;4.286;2023-01-29T00:23:17;1.40;99.90
22738;DHT22;11536;50.860;4.286;2023-01-29T00:25:44;1.40;99.90
22738;DHT22;11536;50.860;4.286;2023-01-29T00:28:09;1.40;99.90
22738;DHT22;11536;50.860;4.286;2023-01-29T00:30:35;1.40;99.90
22738;DHT22;11536;50.860;4.286;2023-01-29T00:33:02;1.40;99.90
22738;DHT22;11536;50.860;4.286;2023-01-29T00:35:28;1.30;99.90
22738;DHT22;11536;50.860;4.286;2023-01-29T00:37:57;1.30;99.90
22738;DHT22;11536;50.860;4.286;2023-01-29T00:40:24;1.30;99.90
22738;DHT22;11536;50.860;4.286;2023-01-29T00:42:49;1.30;99.90
22738;DHT22;11536;50.860;4.286;2023-01-29T00:45:34;1.30;99.90
22738;DHT22;11536;50.860;4.286;2023-01-29T00:48:03;1.30;99.90
22738;DHT22;11536;50.860;4.286;2023-01-29T00:50:29;1.30;99.90
22738;DHT22;11536;50.860;4.286;2023-01-29T00:52:55;1.30;99.90
22738;DHT22;11536;50.860;4.286;2023-01-29T00:55:21;1.30;99.90
22738;DHT22;11536;50.860;4.286;2023-01-29T00:57:46;1.30;99.90
22738;DHT22;11536;50.860;4.286;2023-01-29T01:00:14;1.30;99.90
22738;DHT22;11536;50.860;4.286;2023-01-29T01:02:46;1.30;99.90
22738;DHT22;11536;50.860;4.286;2023-01-29T01:05:30;1.30;99.90
22738;DHT22;11536;50.860;4.286;2023-01-29T01:07:57;1.30;99.90
22738;DHT22;11536;50.860;4.286;2023-01-29T01:10:29;1.30;99.90
22738;DHT22;11536;50.860;4.286;2023-01-29T01:15:22;1.30;99.90
22738;DHT22;11536;50.860;4.286;2023-01-29T01:17:52;1.30;99.90
22738;DHT22;11536;50.860;4.286;2023-01-29T01:20:18;1.30;99.90
22738;DHT22;11536;50.860;4.286;2023-01-29T01:22:44;1.30;99.90
22738;DHT22;11536;50.860;4.286;2023-01-29T01:25:10;1.30;99.90
22738;DHT22;11536;50.860;4.286;2023-01-29T01:27:35;1.30;99.90
22738;DHT22;11536;50.860;4.286;2023-01-29T01:30:10;1.30;99.90
22738;DHT22;11536;50.860;4.286;2023-01-29T01:32:36;1.30;99.90
22738;DHT22;11536;50.860;4.286;2023-01-29T01:35:02;1.30;99.90
22738;DHT22;11536;50.860;4.286;2023-01-29T01:37:28;1.30;99.90
22738;DHT22;11536;50.860;4.286;2023-01-29T01:39:53;1.20;99.90
22738;DHT22;11536;50.860;4.286;2023-01-29T01:42:31;1.20;99.90
22738;DHT22;11536;50.860;4.286;2023-01-29T01:45:02;1.20;99.90
22738;DHT22;11536;50.860;4.286;2023-01-29T01:50:38;1.10;99.90
22738;DHT22;11536;50.860;4.286;2023-01-29T01:53:17;1.10;99.90
22738;DHT22;11536;50.860;4.286;2023-01-29T01:55:48;1.00;99.90
22738;DHT22;11536;50.860;4.286;2023-01-29T01:58:22;1.00;99.90
22738;DHT22;11536;50.860;4.286;2023-01-29T02:00:51;1.00;99.90
22738;DHT22;11536;50.860;4.286;2023-01-29T02:03:18;1.00;99.90
22738;DHT22;11536;50.860;4.286;2023-01-29T02:06:02;1.00;99.90
22738;DHT22;11536;50.860;4.286;2023-01-29T02:09:15;1.00;99.90
22738;DHT22;11536;50.860;4.286;2023-01-29T02:12:08;1.00;99.90
22738;DHT22;11536;50.860;4.286;2023-01-29T02:14:36;1.00;99.90
22738;DHT22;11536;50.860;4.286;2023-01-29T02:17:12;0.90;99.90
22738;DHT22;11536;50.860;4.286;2023-01-29T02:26:22;0.90;99.90
22738;DHT22;11536;50.860;4.286;2023-01-29T02:28:30;0.90;99.90
22738;DHT22;11536;50.860;4.286;2023-01-29T02:31:31;0.90;99.90
22738;DHT22;11536;50.860;4.286;2023-01-29T02:34:45;0.90;99.90
22738;DHT22;11536;50.860;4.286;2023-01-29T02:37:32;0.90;99.90
22738;DHT22;11536;50.860;4.286;2023-01-29T02:40:14;0.80;99.90
22738;DHT22;11536;50.860;4.286;2023-01-29T02:43:13;0.80;99.90
22738;DHT22;11536;50.860;4.286;2023-01-29T02:45:48;0.80;99.90
22738;DHT22;11536;50.860;4.286;2023-01-29T02:48:21;0.80;99.90
22738;DHT22;11536;50.860;4.286;2023-01-29T02:50:59;0.80;99.90
22738;DHT22;11536;50.860;4.286;2023-01-29T02:53:47;0.80;99.90
22738;DHT22;11536;50.860;4.286;2023-01-29T02:56:26;0.80;99.90
22738;DHT22;11536;50.860;4.286;2023-01-29T02:58:59;0.70;99.90
22738;DHT22;11536;50.860;4.286;2023-01-29T03:01:29;0.80;99.90
22738;DHT22;11536;50.860;4.286;2023-01-29T03:04:02;0.70;99.90
22738;DHT22;11536;50.860;4.286;2023-01-29T03:06:36;0.70;99.90
22738;DHT22;11536;50.860;4.286;2023-01-29T03:09:06;0.70;99.90
22738;DHT22;11536;50.860;4.286;2023-01-29T03:11:38;0.70;99.90
22738;DHT22;11536;50.860;4.286;2023-01-29T03:14:40;0.70;99.90
22738;DHT22;11536;50.860;4.286;2023-01-29T03:17:29;0.70;99.90
22738;DHT22;11536;50.860;4.286;2023-01-29T03:19:57;0.80;99.90
22738;DHT22;11536;50.860;4.286;2023-01-29T03:22:24;0.80;99.90
22738;DHT22;11536;50.860;4.286;2023-01-29T03:24:56;0.80;99.90
22738;DHT22;11536;50.860;4.286;2023-01-29T03:27:53;0.80;99.90
22738;DHT22;11536;50.860;4.286;2023-01-29T03:30:47;0.70;99.90
22738;DHT22;11536;50.860;4.286;2023-01-29T03:33:42;0.70;99.90
22738;DHT22;11536;50.860;4.286;2023-01-29T03:36:15;0.70;99.90
22738;DHT22;11536;50.860;4.286;2023-01-29T03:38:42;0.70;99.90
22738;DHT22;11536;50.860;4.286;2023-01-29T03:43:54;0.70;99.90
22738;DHT22;11536;50.860;4.286;2023-01-29T03:46:45;0.70;99.90
22738;DHT22;11536;50.860;4.286;2023-01-29T03:49:33;0.70;99.90
22738;DHT22;11536;50.860;4.286;2023-01-29T03:52:25;0.70;99.90
22738;DHT22;11536;50.860;4.286;2023-01-29T03:55:07;0.70;99.90
22738;DHT22;11536;50.860;4.286;2023-01-29T04:00:18;0.70;99.90
22738;DHT22;11536;50.860;4.286;2023-01-29T04:05:24;0.70;99.90
22738;DHT22;11536;50.860;4.286;2023-01-29T04:08:00;0.70;99.90
22738;DHT22;11536;50.860;4.286;2023-01-29T04:10:28;0.70;99.90
22738;DHT22;11536;50.860;4.286;2023-01-29T04:12:57;0.70;99.90
22738;DHT22;11536;50.860;4.286;2023-01-29T04:15:26;0.70;99.90
22738;DHT22;11536;50.860;4.286;2023-01-29T04:17:54;0.70;99.90
22738;DHT22;11536;50.860;4.286;2023-01-29T04:20:21;0.70;99.90
22738;DHT22;11536;50.860;4.286;2023-01-29T04:22:48;0.70;99.90
22738;DHT22;11536;50.860;4.286;2023-01-29T04:25:27;0.70;99.90
22738;DHT22;11536;50.860;4.286;2023-01-29T04:31:01;0.70;99.90
22738;DHT22;11536;50.860;4.286;2023-01-29T04:41:41;0.70;99.90
22738;DHT22;11536;50.860;4.286;2023-01-29T04:44:22;0.80;99.90
22738;DHT22;11536;50.860;4.286;2023-01-29T04:55:07;0.80;99.90
22738;DHT22;11536;50.860;4.286;2023-01-29T04:57:42;0.80;99.90
22738;DHT22;11536;50.860;4.286;2023-01-29T05:00:21;0.90;99.90
22738;DHT22;11536;50.860;4.286;2023-01-29T05:02:48;0.90;99.90
22738;DHT22;11536;50.860;4.286;2023-01-29T05:05:16;0.90;99.90
22738;DHT22;11536;50.860;4.286;2023-01-29T05:07:44;0.90;99.90
22738;DHT22;11536;50.860;4.286;2023-01-29T05:10:12;0.90;99.90
22738;DHT22;11536;50.860;4.286;2023-01-29T05:12:39;0.90;99.90
22738;DHT22;11536;50.860;4.286;2023-01-29T05:15:10;0.90;99.90
22738;DHT22;11536;50.860;4.286;2023-01-29T05:17:36;1.00;99.90
22738;DHT22;11536;50.860;4.286;2023-01-29T05:20:03;1.00;99.90
22738;DHT22;11536;50.860;4.286;2023-01-29T05:22:29;1.00;99.90
22738;DHT22;11536;50.860;4.286;2023-01-29T05:24:55;1.00;99.90
22738;DHT22;11536;50.860;4.286;2023-01-29T05:27:26;1.10;99.90
22738;DHT22;11536;50.860;4.286;2023-01-29T05:30:12;1.10;99.90
22738;DHT22;11536;50.860;4.286;2023-01-29T05:32:37;1.10;99.90
22738;DHT22;11536;50.860;4.286;2023-01-29T05:35:04;1.10;99.90
22738;DHT22;11536;50.860;4.286;2023-01-29T05:37:30;1.10;99.90
22738;DHT22;11536;50.860;4.286;2023-01-29T05:39:55;1.10;99.90
22738;DHT22;11536;50.860;4.286;2023-01-29T05:42:21;1.10;99.90
22738;DHT22;11536;50.860;4.286;2023-01-29T05:44:47;1.10;99.90
22738;DHT22;11536;50.860;4.286;2023-01-29T05:47:12;1.10;99.90
22738;DHT22;11536;50.860;4.286;2023-01-29T05:49:38;1.20;99.90
22738;DHT22;11536;50.860;4.286;2023-01-29T05:52:03;1.20;99.90
22738;DHT22;11536;50.860;4.286;2023-01-29T05:54:29;1.10;99.90
22738;DHT22;11536;50.860;4.286;2023-01-29T05:56:55;1.20;99.90
22738;DHT22;11536;50.860;4.286;2023-01-29T05:59:20;1.20;99.90
22738;DHT22;11536;50.860;4.286;2023-01-29T06:01:46;1.10;99.90
22738;DHT22;11536;50.860;4.286;2023-01-29T06:04:11;1.20;99.90
22738;DHT22;11536;50.860;4.286;2023-01-29T06:06:37;1.20;99.90
22738;DHT22;11536;50.860;4.286;2023-01-29T06:09:02;1.20;99.90
22738;DHT22;11536;50.860;4.286;2023-01-29T06:11:28;1.20;99.90
22738;DHT22;11536;50.860;4.286;2023-01-29T06:13:54;1.10;99.90
22738;DHT22;11536;50.860;4.286;2023-01-29T06:16:19;1.20;99.90
22738;DHT22;11536;50.860;4.286;2023-01-29T06:18:45;1.20;99.90
22738;DHT22;11536;50.860;4.286;2023-01-29T06:21:12;1.20;99.90
22738;DHT22;11536;50.860;4.286;2023-01-29T06:23:38;1.20;99.90
22738;DHT22;11536;50.860;4.286;2023-01-29T06:26:13;1.20;99.90
22738;DHT22;11536;50.860;4.286;2023-01-29T06:28:40;1.20;99.90
22738;DHT22;11536;50.860;4.286;2023-01-29T06:31:06;1.20;99.90
22738;DHT22;11536;50.860;4.286;2023-01-29T06:33:33;1.20;99.90
22738;DHT22;11536;50.860;4.286;2023-01-29T06:36:00;1.20;99.90
22738;DHT22;11536;50.860;4.286;2023-01-29T06:38:26;1.20;99.90
22738;DHT22;11536;50.860;4.286;2023-01-29T06:40:53;1.20;99.90
22738;DHT22;11536;50.860;4.286;2023-01-29T06:43:19;1.20;99.90
22738;DHT22;11536;50.860;4.286;2023-01-29T06:45:55;1.20;99.90
22738;DHT22;11536;50.860;4.286;2023-01-29T06:48:23;1.20;99.90
22738;DHT22;11536;50.860;4.286;2023-01-29T06:50:49;1.20;99.90
22738;DHT22;11536;50.860;4.286;2023-01-29T06:53:16;1.20;99.90
22738;DHT22;11536;50.860;4.286;2023-01-29T06:55:43;1.20;99.90
22738;DHT22;11536;50.860;4.286;2023-01-29T06:58:10;1.20;99.90
22738;DHT22;11536;50.860;4.286;2023-01-29T07:00:37;1.20;99.90
22738;DHT22;11536;50.860;4.286;2023-01-29T07:03:03;1.30;99.90
22738;DHT22;11536;50.860;4.286;2023-01-29T07:05:30;1.30;99.90
22738;DHT22;11536;50.860;4.286;2023-01-29T07:07:56;1.30;99.90
22738;DHT22;11536;50.860;4.286;2023-01-29T07:10:22;1.30;99.90
22738;DHT22;11536;50.860;4.286;2023-01-29T07:12:47;1.30;99.90
22738;DHT22;11536;50.860;4.286;2023-01-29T07:15:13;1.30;99.90
22738;DHT22;11536;50.860;4.286;2023-01-29T07:17:39;1.30;99.90
22738;DHT22;11536;50.860;4.286;2023-01-29T07:20:05;1.30;99.90
22738;DHT22;11536;50.860;4.286;2023-01-29T07:22:31;1.30;99.90
22738;DHT22;11536;50.860;4.286;2023-01-29T07:24:57;1.30;99.90
22738;DHT22;11536;50.860;4.286;2023-01-29T07:27:23;1.40;99.90
22738;DHT22;11536;50.860;4.286;2023-01-29T07:29:48;1.40;99.90
22738;DHT22;11536;50.860;4.286;2023-01-29T07:32:14;1.40;99.90
22738;DHT22;11536;50.860;4.286;2023-01-29T07:34:39;1.40;99.90
22738;DHT22;11536;50.860;4.286;2023-01-29T07:37:05;1.40;99.90
22738;DHT22;11536;50.860;4.286;2023-01-29T07:39:31;1.40;99.90
22738;DHT22;11536;50.860;4.286;2023-01-29T07:41:57;1.40;99.90
22738;DHT22;11536;50.860;4.286;2023-01-29T07:44:22;1.40;99.90
22738;DHT22;11536;50.860;4.286;2023-01-29T07:46:48;1.40;99.90
22738;DHT22;11536;50.860;4.286;2023-01-29T07:49:14;1.50;99.90
22738;DHT22;11536;50.860;4.286;2023-01-29T07:51:40;1.40;99.90
22738;DHT22;11536;50.860;4.286;2023-01-29T07:54:06;1.50;99.90
22738;DHT22;11536;50.860;4.286;2023-01-29T07:56:31;1.50;99.90
22738;DHT22;11536;50.860;4.286;2023-01-29T07:58:57;1.50;99.90
22738;DHT22;11536;50.860;4.286;2023-01-29T08:01:23;1.50;99.90
22738;DHT22;11536;50.860;4.286;2023-01-29T08:03:49;1.50;99.90
22738;DHT22;11536;50.860;4.286;2023-01-29T08:06:15;1.50;99.90
22738;DHT22;11536;50.860;4.286;2023-01-29T08:08:40;1.50;99.90
22738;DHT22;11536;50.860;4.286;2023-01-29T08:11:06;1.50;99.90
22738;DHT22;11536;50.860;4.286;2023-01-29T08:13:32;1.50;99.90
22738;DHT22;11536;50.860;4.286;2023-01-29T08:16:02;1.50;99.90
22738;DHT22;11536;50.860;4.286;2023-01-29T08:18:28;1.60;99.90
22738;DHT22;11536;50.860;4.286;2023-01-29T08:21:00;1.60;99.90
22738;DHT22;11536;50.860;4.286;2023-01-29T08:23:26;1.60;99.90
22738;DHT22;11536;50.860;4.286;2023-01-29T08:25:52;1.60;99.90
22738;DHT22;11536;50.860;4.286;2023-01-29T08:28:17;1.60;99.90
22738;DHT22;11536;50.860;4.286;2023-01-29T08:30:43;1.70;99.90
22738;DHT22;11536;50.860;4.286;2023-01-29T08:33:09;1.70;99.90
22738;DHT22;11536;50.860;4.286;2023-01-29T08:35:35;1.70;99.90
22738;DHT22;11536;50.860;4.286;2023-01-29T08:38:02;1.70;99.90
22738;DHT22;11536;50.860;4.286;2023-01-29T08:40:30;1.70;99.90
22738;DHT22;11536;50.860;4.286;2023-01-29T08:43:00;1.80;99.90
22738;DHT22;11536;50.860;4.286;2023-01-29T08:45:26;1.80;99.90
22738;DHT22;11536;50.860;4.286;2023-01-29T08:47:52;1.80;99.90
22738;DHT22;11536;50.860;4.286;2023-01-29T08:50:18;1.80;99.90
22738;DHT22;11536;50.860;4.286;2023-01-29T08:52:44;1.80;99.90
22738;DHT22;11536;50.860;4.286;2023-01-29T08:55:10;1.80;99.90
22738;DHT22;11536;50.860;4.286;2023-01-29T08:57:37;1.90;99.90
22738;DHT22;11536;50.860;4.286;2023-01-29T09:00:04;1.80;99.90
22738;DHT22;11536;50.860;4.286;2023-01-29T09:02:30;1.90;99.90
22738;DHT22;11536;50.860;4.286;2023-01-29T09:04:56;1.90;99.90
22738;DHT22;11536;50.860;4.286;2023-01-29T09:07:22;1.90;99.90
22738;DHT22;11536;50.860;4.286;2023-01-29T09:09:47;2.00;99.90
22738;DHT22;11536;50.860;4.286;2023-01-29T09:12:13;2.00;99.90
22738;DHT22;11536;50.860;4.286;2023-01-29T09:14:38;2.00;99.90
22738;DHT22;11536;50.860;4.286;2023-01-29T09:17:04;2.00;99.90
22738;DHT22;11536;50.860;4.286;2023-01-29T09:19:29;2.10;99.90
22738;DHT22;11536;50.860;4.286;2023-01-29T09:21:55;2.10;99.90
22738;DHT22;11536;50.860;4.286;2023-01-29T09:24:20;2.10;99.90
22738;DHT22;11536;50.860;4.286;2023-01-29T09:26:46;2.10;99.90
22738;DHT22;11536;50.860;4.286;2023-01-29T09:29:12;2.10;99.90
22738;DHT22;11536;50.860;4.286;2023-01-29T09:31:37;2.20;99.90
22738;DHT22;11536;50.860;4.286;2023-01-29T09:34:03;2.20;99.90
22738;DHT22;11536;50.860;4.286;2023-01-29T09:36:28;2.20;99.90
22738;DHT22;11536;50.860;4.286;2023-01-29T09:38:54;2.20;99.90
22738;DHT22;11536;50.860;4.286;2023-01-29T09:44:01;2.30;99.90
22738;DHT22;11536;50.860;4.286;2023-01-29T09:46:29;2.30;99.90
22738;DHT22;11536;50.860;4.286;2023-01-29T09:51:45;2.40;99.90
22738;DHT22;11536;50.860;4.286;2023-01-29T09:54:26;2.40;99.90
22738;DHT22;11536;50.860;4.286;2023-01-29T09:56:55;2.40;99.90
22738;DHT22;11536;50.860;4.286;2023-01-29T09:59:24;2.40;99.90
22738;DHT22;11536;50.860;4.286;2023-01-29T10:07:35;2.50;99.90
22738;DHT22;11536;50.860;4.286;2023-01-29T10:10:22;2.50;99.90
22738;DHT22;11536;50.860;4.286;2023-01-29T10:13:31;2.60;99.90
22738;DHT22;11536;50.860;4.286;2023-01-29T10:18:48;2.60;99.90
22738;DHT22;11536;50.860;4.286;2023-01-29T10:23:49;2.60;99.90
22738;DHT22;11536;50.860;4.286;2023-01-29T10:26:18;2.70;99.90
22738;DHT22;11536;50.860;4.286;2023-01-29T10:28:48;2.70;99.90
22738;DHT22;11536;50.860;4.286;2023-01-29T10:34:11;2.80;99.90
22738;DHT22;11536;50.860;4.286;2023-01-29T10:36:46;2.80;99.90
22738;DHT22;11536;50.860;4.286;2023-01-29T10:39:20;2.90;99.90
22738;DHT22;11536;50.860;4.286;2023-01-29T10:42:27;2.90;99.90
22738;DHT22;11536;50.860;4.286;2023-01-29T10:45:21;2.90;99.90
22738;DHT22;11536;50.860;4.286;2023-01-29T10:50:46;3.00;99.90
22738;DHT22;11536;50.860;4.286;2023-01-29T11:02:14;3.00;99.90
22738;DHT22;11536;50.860;4.286;2023-01-29T11:04:40;3.10;99.90
22738;DHT22;11536;50.860;4.286;2023-01-29T11:07:06;3.10;99.90
22738;DHT22;11536;50.860;4.286;2023-01-29T11:12:21;3.20;99.90
22738;DHT22;11536;50.860;4.286;2023-01-29T11:15:02;3.20;99.90
22738;DHT22;11536;50.860;4.286;2023-01-29T11:17:29;3.30;99.90
22738;DHT22;11536;50.860;4.286;2023-01-29T11:19:55;3.40;99.90
22738;DHT22;11536;50.860;4.286;2023-01-29T11:22:26;3.30;99.90
22738;DHT22;11536;50.860;4.286;2023-01-29T11:25:17;3.40;99.90
22738;DHT22;11536;50.860;4.286;2023-01-29T11:27:48;3.40;99.90
22738;DHT22;11536;50.860;4.286;2023-01-29T11:30:51;3.40;99.90
22738;DHT22;11536;50.860;4.286;2023-01-29T11:33:21;3.50;99.90
22738;DHT22;11536;50.860;4.286;2023-01-29T11:35:48;3.50;99.90
22738;DHT22;11536;50.860;4.286;2023-01-29T11:38:21;3.60;99.90
22738;DHT22;11536;50.860;4.286;2023-01-29T11:40:47;3.60;99.90
22738;DHT22;11536;50.860;4.286;2023-01-29T11:43:21;3.60;99.90
22738;DHT22;11536;50.860;4.286;2023-01-29T11:45:48;3.60;99.90
22738;DHT22;11536;50.860;4.286;2023-01-29T11:48:17;3.60;99.90
22738;DHT22;11536;50.860;4.286;2023-01-29T11:50:49;3.70;99.90
22738;DHT22;11536;50.860;4.286;2023-01-29T11:53:35;3.70;99.90
22738;DHT22;11536;50.860;4.286;2023-01-29T11:58:46;3.70;99.90
22738;DHT22;11536;50.860;4.286;2023-01-29T12:01:15;3.70;99.90
22738;DHT22;11536;50.860;4.286;2023-01-29T12:03:44;3.70;99.90
22738;DHT22;11536;50.860;4.286;2023-01-29T12:06:16;3.80;99.90
22738;DHT22;11536;50.860;4.286;2023-01-29T12:08:42;3.80;99.90
22738;DHT22;11536;50.860;4.286;2023-01-29T12:13:58;3.90;99.90
22738;DHT22;11536;50.860;4.286;2023-01-29T12:19:24;3.90;99.90
22738;DHT22;11536;50.860;4.286;2023-01-29T12:21:57;4.00;99.90
22738;DHT22;11536;50.860;4.286;2023-01-29T12:24:28;4.00;99.90
22738;DHT22;11536;50.860;4.286;2023-01-29T12:27:09;4.00;99.90
22738;DHT22;11536;50.860;4.286;2023-01-29T12:29:54;4.00;99.90
22738;DHT22;11536;50.860;4.286;2023-01-29T12:35:02;4.10;99.90
22738;DHT22;11536;50.860;4.286;2023-01-29T12:38:36;4.10;99.90
22738;DHT22;11536;50.860;4.286;2023-01-29T12:40:47;4.10;99.90
22738;DHT22;11536;50.860;4.286;2023-01-29T12:43:16;4.20;99.90
22738;DHT22;11536;50.860;4.286;2023-01-29T12:45:45;4.20;99.90
22738;DHT22;11536;50.860;4.286;2023-01-29T12:48:20;4.20;99.90
22738;DHT22;11536;50.860;4.286;2023-01-29T12:50:49;4.30;99.90
22738;DHT22;11536;50.860;4.286;2023-01-29T12:53:31;4.30;99.90
22738;DHT22;11536;50.860;4.286;2023-01-29T12:56:01;4.30;99.90
22738;DHT22;11536;50.860;4.286;2023-01-29T12:58:35;4.30;99.90
22738;DHT22;11536;50.860;4.286;2023-01-29T13:01:08;4.30;99.90
22738;DHT22;11536;50.860;4.286;2023-01-29T13:06:10;4.20;99.90
22738;DHT22;11536;50.860;4.286;2023-01-29T13:08:45;4.30;99.90
22738;DHT22;11536;50.860;4.286;2023-01-29T13:11:25;4.30;99.90
22738;DHT22;11536;50.860;4.286;2023-01-29T13:13:59;4.30;99.90
22738;DHT22;11536;50.860;4.286;2023-01-29T13:16:29;4.30;99.90
22738;DHT22;11536;50.860;4.286;2023-01-29T13:19:30;4.30;99.90
22738;DHT22;11536;50.860;4.286;2023-01-29T13:21:59;4.30;99.90
22738;DHT22;11536;50.860;4.286;2023-01-29T13:24:32;4.30;99.90
22738;DHT22;11536;50.860;4.286;2023-01-29T13:29:35;4.40;99.90
22738;DHT22;11536;50.860;4.286;2023-01-29T13:32:03;4.40;99.90
22738;DHT22;11536;50.860;4.286;2023-01-29T13:34:31;4.40;99.90
22738;DHT22;11536;50.860;4.286;2023-01-29T13:39:56;4.50;99.90
22738;DHT22;11536;50.860;4.286;2023-01-29T13:45:01;4.50;99.90
22738;DHT22;11536;50.860;4.286;2023-01-29T13:47:35;4.50;99.90
22738;DHT22;11536;50.860;4.286;2023-01-29T13:50:50;4.50;99.90
22738;DHT22;11536;50.860;4.286;2023-01-29T13:52:54;4.50;99.90
22738;DHT22;11536;50.860;4.286;2023-01-29T13:55:25;4.50;99.90
22738;DHT22;11536;50.860;4.286;2023-01-29T13:57:56;4.50;99.90
22738;DHT22;11536;50.860;4.286;2023-01-29T14:07:56;4.50;99.90
22738;DHT22;11536;50.860;4.286;2023-01-29T14:10:24;4.60;99.90
22738;DHT22;11536;50.860;4.286;2023-01-29T14:12:52;4.60;99.90
22738;DHT22;11536;50.860;4.286;2023-01-29T14:15:24;4.60;99.90
22738;DHT22;11536;50.860;4.286;2023-01-29T14:20:33;4.60;99.90
22738;DHT22;11536;50.860;4.286;2023-01-29T14:23:00;4.60;99.90
22738;DHT22;11536;50.860;4.286;2023-01-29T14:25:33;4.60;99.90
22738;DHT22;11536;50.860;4.286;2023-01-29T14:28:01;4.60;99.90
22738;DHT22;11536;50.860;4.286;2023-01-29T14:30:33;4.70;99.90
22738;DHT22;11536;50.860;4.286;2023-01-29T14:32:59;4.70;99.90
22738;DHT22;11536;50.860;4.286;2023-01-29T14:35:28;4.70;99.90
22738;DHT22;11536;50.860;4.286;2023-01-29T14:37:59;4.70;99.90
22738;DHT22;11536;50.860;4.286;2023-01-29T14:40:28;4.80;99.90
22738;DHT22;11536;50.860;4.286;2023-01-29T14:43:05;4.80;99.90
22738;DHT22;11536;50.860;4.286;2023-01-29T14:53:20;4.80;99.90
22738;DHT22;11536;50.860;4.286;2023-01-29T15:01:00;4.80;99.90
22738;DHT22;11536;50.860;4.286;2023-01-29T15:03:43;4.80;99.90
22738;DHT22;11536;50.860;4.286;2023-01-29T15:06:17;4.80;99.90
22738;DHT22;11536;50.860;4.286;2023-01-29T15:08:52;4.80;99.90
22738;DHT22;11536;50.860;4.286;2023-01-29T15:11:43;4.80;99.90
22738;DHT22;11536;50.860;4.286;2023-01-29T15:17:15;4.80;99.90
22738;DHT22;11536;50.860;4.286;2023-01-29T15:19:47;4.80;99.90
22738;DHT22;11536;50.860;4.286;2023-01-29T15:22:20;4.80;99.90
22738;DHT22;11536;50.860;4.286;2023-01-29T15:25:00;4.80;99.90
22738;DHT22;11536;50.860;4.286;2023-01-29T15:27:27;4.80;99.90
22738;DHT22;11536;50.860;4.286;2023-01-29T15:29:58;4.80;99.90
22738;DHT22;11536;50.860;4.286;2023-01-29T15:32:44;4.80;99.90
22738;DHT22;11536;50.860;4.286;2023-01-29T15:35:37;4.80;99.90
22738;DHT22;11536;50.860;4.286;2023-01-29T15:38:20;4.80;99.90
22738;DHT22;11536;50.860;4.286;2023-01-29T15:40:55;4.80;99.90
22738;DHT22;11536;50.860;4.286;2023-01-29T15:43:29;4.80;99.90
22738;DHT22;11536;50.860;4.286;2023-01-29T15:46:01;4.80;99.90
22738;DHT22;11536;50.860;4.286;2023-01-29T15:48:34;4.80;99.90
22738;DHT22;11536;50.860;4.286;2023-01-29T15:51:07;4.80;99.90
22738;DHT22;11536;50.860;4.286;2023-01-29T15:53:58;4.80;99.90
22738;DHT22;11536;50.860;4.286;2023-01-29T15:56:30;4.80;99.90
22738;DHT22;11536;50.860;4.286;2023-01-29T15:59:00;4.80;99.90
22738;DHT22;11536;50.860;4.286;2023-01-29T16:01:27;4.80;99.90
22738;DHT22;11536;50.860;4.286;2023-01-29T16:03:53;4.70;99.90
22738;DHT22;11536;50.860;4.286;2023-01-29T16:06:20;4.70;99.90
22738;DHT22;11536;50.860;4.286;2023-01-29T16:08:50;4.80;99.90
22738;DHT22;11536;50.860;4.286;2023-01-29T16:11:17;4.70;99.90
22738;DHT22;11536;50.860;4.286;2023-01-29T16:13:45;4.80;99.90
22738;DHT22;11536;50.860;4.286;2023-01-29T16:16:18;4.80;99.90
22738;DHT22;11536;50.860;4.286;2023-01-29T16:18:45;4.80;99.90
22738;DHT22;11536;50.860;4.286;2023-01-29T16:21:39;4.70;99.90
22738;DHT22;11536;50.860;4.286;2023-01-29T16:24:11;4.70;99.90
22738;DHT22;11536;50.860;4.286;2023-01-29T16:26:43;4.70;99.90
22738;DHT22;11536;50.860;4.286;2023-01-29T16:29:12;4.70;99.90
22738;DHT22;11536;50.860;4.286;2023-01-29T16:31:38;4.70;99.90
22738;DHT22;11536;50.860;4.286;2023-01-29T16:34:24;4.70;99.90
22738;DHT22;11536;50.860;4.286;2023-01-29T16:36:50;4.60;99.90
22738;DHT22;11536;50.860;4.286;2023-01-29T16:39:22;4.60;99.90
22738;DHT22;11536;50.860;4.286;2023-01-29T16:44:37;4.60;99.90
22738;DHT22;11536;50.860;4.286;2023-01-29T16:47:14;4.60;99.90
22738;DHT22;11536;50.860;4.286;2023-01-29T16:49:52;4.60;99.90
22738;DHT22;11536;50.860;4.286;2023-01-29T16:52:32;4.50;99.90
22738;DHT22;11536;50.860;4.286;2023-01-29T16:57:37;4.50;99.90
22738;DHT22;11536;50.860;4.286;2023-01-29T17:00:07;4.50;99.90
22738;DHT22;11536;50.860;4.286;2023-01-29T17:02:36;4.50;99.90
22738;DHT22;11536;50.860;4.286;2023-01-29T17:05:05;4.50;99.90
22738;DHT22;11536;50.860;4.286;2023-01-29T17:07:32;4.50;99.90
22738;DHT22;11536;50.860;4.286;2023-01-29T17:10:03;4.50;99.90
22738;DHT22;11536;50.860;4.286;2023-01-29T17:12:31;4.50;99.90
22738;DHT22;11536;50.860;4.286;2023-01-29T17:15:51;4.50;99.90
22738;DHT22;11536;50.860;4.286;2023-01-29T17:18:24;4.50;99.90
22738;DHT22;11536;50.860;4.286;2023-01-29T17:20:51;4.50;99.90
22738;DHT22;11536;50.860;4.286;2023-01-29T17:23:21;4.50;99.90
22738;DHT22;11536;50.860;4.286;2023-01-29T17:25:47;4.40;99.90
22738;DHT22;11536;50.860;4.286;2023-01-29T17:28:16;4.50;99.90
22738;DHT22;11536;50.860;4.286;2023-01-29T17:30:42;4.40;99.90
22738;DHT22;11536;50.860;4.286;2023-01-29T17:33:18;4.50;99.90
22738;DHT22;11536;50.860;4.286;2023-01-29T17:35:47;4.50;99.90
22738;DHT22;11536;50.860;4.286;2023-01-29T17:38:15;4.50;99.90
22738;DHT22;11536;50.860;4.286;2023-01-29T17:40:51;4.50;99.90
22738;DHT22;11536;50.860;4.286;2023-01-29T17:43:17;4.50;99.90
22738;DHT22;11536;50.860;4.286;2023-01-29T17:45:42;4.50;99.90
22738;DHT22;11536;50.860;4.286;2023-01-29T17:48:21;4.50;99.90
22738;DHT22;11536;50.860;4.286;2023-01-29T17:50:49;4.50;99.90
22738;DHT22;11536;50.860;4.286;2023-01-29T17:53:17;4.50;99.90
22738;DHT22;11536;50.860;4.286;2023-01-29T17:55:43;4.50;99.90
22738;DHT22;11536;50.860;4.286;2023-01-29T17:58:24;4.50;99.90
22738;DHT22;11536;50.860;4.286;2023-01-29T18:00:50;4.50;99.90
22738;DHT22;11536;50.860;4.286;2023-01-29T18:03:16;4.50;99.90
22738;DHT22;11536;50.860;4.286;2023-01-29T18:05:44;4.50;99.90
22738;DHT22;11536;50.860;4.286;2023-01-29T18:08:24;4.50;99.90
22738;DHT22;11536;50.860;4.286;2023-01-29T18:10:50;4.50;99.90
22738;DHT22;11536;50.860;4.286;2023-01-29T18:13:16;4.50;99.90
22738;DHT22;11536;50.860;4.286;2023-01-29T18:15:42;4.50;99.90
22738;DHT22;11536;50.860;4.286;2023-01-29T18:18:17;4.50;99.90